createdAt,value
2018-02-16T00:01:31.548Z,101917.36
2018-02-16T00:03:59.851Z,101928.93
2018-02-16T00:06:28.152Z,101923.36
2018-02-16T00:08:56.516Z,101930.41
2018-02-16T00:11:24.810Z,101936.37
2018-02-16T00:13:53.127Z,101940.27
2018-02-16T00:16:21.467Z,101939.64
2018-02-16T00:18:49.782Z,101943.55
2018-02-16T00:21:18.082Z,101947.88
2018-02-16T00:23:47.142Z,101946.47
2018-02-16T00:26:15.502Z,101952.27
2018-02-16T00:28:43.794Z,101950.87
2018-02-16T00:31:12.110Z,101957.09
2018-02-16T00:33:41.232Z,101962.66
2018-02-16T00:36:10.318Z,101971.95
2018-02-16T00:38:39.386Z,101973.08
2018-02-16T00:41:07.744Z,101974.12
2018-02-16T00:43:36.050Z,101972.58
2018-02-16T00:46:04.382Z,101971.26
2018-02-16T00:48:33.454Z,101980.96
2018-02-16T00:51:01.830Z,101975.23
2018-02-16T00:53:30.142Z,101978.45
2018-02-16T00:55:59.204Z,101981.39
2018-02-16T00:58:27.510Z,101991.69
2018-02-16T01:00:56.594Z,101985.55
2018-02-16T01:03:24.941Z,101991.83
2018-02-16T01:05:53.238Z,101995.39
2018-02-16T01:08:21.592Z,101996.44
2018-02-16T01:10:50.674Z,102002.02
2018-02-16T01:13:19.764Z,102002.52
2018-02-16T01:15:48.829Z,102009.22
2018-02-16T01:18:17.136Z,102015.01
2018-02-16T01:20:45.448Z,102020.66
2018-02-16T01:23:13.758Z,102016.97
2018-02-16T01:25:42.052Z,102021.79
2018-02-16T01:28:10.346Z,102021.45
2018-02-16T01:30:38.660Z,102023.50
2018-02-16T01:33:07.758Z,102037.67
2018-02-16T01:35:36.843Z,102034.89
2018-02-16T01:38:05.914Z,102042.22
2018-02-16T01:40:34.208Z,102040.05
2018-02-16T01:43:02.539Z,102044.73
2018-02-16T01:45:31.548Z,102054.02
2018-02-16T01:47:59.866Z,102050.10
2018-02-16T01:50:28.282Z,102049.19
2018-02-16T01:52:57.368Z,102044.73
2018-02-16T01:55:25.697Z,102051.56
2018-02-16T01:57:54.070Z,102050.34
2018-02-16T02:00:22.376Z,102057.78
2018-02-16T02:02:50.673Z,102056.14
2018-02-16T02:05:18.996Z,102067.65
2018-02-16T02:07:47.288Z,102068.48
2018-02-16T02:10:15.712Z,102070.79
2018-02-16T02:12:44.834Z,102072.25
2018-02-16T02:15:13.168Z,102074.84
2018-02-16T02:17:41.466Z,102078.88
2018-02-16T02:20:09.934Z,102087.47
2018-02-16T02:22:38.237Z,102087.53
2018-02-16T02:25:06.592Z,102089.84
2018-02-16T02:27:34.922Z,102095.06
2018-02-16T02:30:03.228Z,102093.75
2018-02-16T02:32:32.322Z,102102.19
2018-02-16T02:35:01.424Z,102095.20
2018-02-16T02:37:30.492Z,102095.91
2018-02-16T02:39:58.810Z,102097.78
2018-02-16T02:42:27.874Z,102101.77
2018-02-16T02:44:56.245Z,102101.58
2018-02-16T02:47:24.646Z,102109.67
2018-02-16T02:49:52.982Z,102113.52
2018-02-16T02:52:21.287Z,102115.95
2018-02-16T02:54:50.215Z,102114.41
2018-02-16T02:57:18.532Z,102117.76
2018-02-16T02:59:46.837Z,102118.45
2018-02-16T03:02:15.139Z,102117.50
2018-02-16T03:04:43.446Z,102124.13
2018-02-16T03:07:12.522Z,102125.45
2018-02-16T03:09:40.821Z,102134.77
2018-02-16T03:12:09.913Z,102135.50
2018-02-16T03:14:38.204Z,102135.28
2018-02-16T03:17:07.282Z,102136.67
2018-02-16T03:19:35.607Z,102130.25
2018-02-16T03:22:04.771Z,102133.11
2018-02-16T03:24:33.085Z,102131.36
2018-02-16T03:27:02.182Z,102129.48
2018-02-16T03:29:31.301Z,102135.33
2018-02-16T03:31:59.608Z,102141.19
2018-02-16T03:34:27.926Z,102145.72
2018-02-16T03:36:57.075Z,102149.44
2018-02-16T03:39:25.607Z,102154.32
2018-02-16T03:41:53.908Z,102161.37
2018-02-16T03:44:22.987Z,102165.06
2018-02-16T03:46:51.306Z,102167.36
2018-02-16T03:49:19.646Z,102168.53
2018-02-16T03:51:48.485Z,102168.66
2018-02-16T03:54:16.804Z,102178.49
2018-02-16T03:56:45.118Z,102179.95
2018-02-16T03:59:13.432Z,102185.80
2018-02-16T04:01:41.756Z,102186.09
2018-02-16T04:04:10.058Z,102194.89
2018-02-16T04:06:38.384Z,102193.14
2018-02-16T04:09:07.062Z,102191.81
2018-02-16T04:11:36.148Z,102187.48
2018-02-16T04:14:04.498Z,102191.92
2018-02-16T04:16:32.807Z,102189.13
2018-02-16T04:19:02.114Z,102195.42
2018-02-16T04:21:31.176Z,102197.55
2018-02-16T04:23:59.542Z,102205.92
2018-02-16T04:26:27.861Z,102207.54
2018-02-16T04:28:56.958Z,102211.64
2018-02-16T04:31:25.412Z,102215.78
2018-02-16T04:33:53.748Z,102222.47
2018-02-16T04:36:22.822Z,102216.33
2018-02-16T04:38:51.127Z,102223.98
2018-02-16T04:41:20.459Z,102229.16
2018-02-16T04:43:49.597Z,102234.39
2018-02-16T04:46:17.917Z,102239.20
2018-02-16T04:48:46.975Z,102242.40
2018-02-16T04:51:15.438Z,102240.59
2018-02-16T04:53:43.747Z,102237.39
2018-02-16T04:56:12.056Z,102242.17
2018-02-16T04:58:41.131Z,102251.05
2018-02-16T05:01:09.465Z,102261.23
2018-02-16T05:03:37.781Z,102256.13
2018-02-16T05:06:06.081Z,102265.20
2018-02-16T05:08:34.423Z,102261.30
2018-02-16T05:11:02.763Z,102260.00
2018-02-16T05:13:31.833Z,102265.38
2018-02-16T05:16:00.159Z,102264.08
2018-02-16T05:18:29.247Z,102268.62
2018-02-16T05:20:59.027Z,102267.14
2018-02-16T05:23:27.349Z,102273.34
2018-02-16T05:25:56.459Z,102276.06
2018-02-16T05:28:24.794Z,102282.50
2018-02-16T05:30:53.133Z,102280.95
2018-02-16T05:33:21.470Z,102285.94
2018-02-16T05:35:49.769Z,102290.33
2018-02-16T05:38:18.077Z,102294.44
2018-02-16T05:40:46.371Z,102294.08
2018-02-16T05:43:14.664Z,102298.19
2018-02-16T05:45:42.991Z,102301.16
2018-02-16T05:48:11.301Z,102307.49
2018-02-16T05:50:39.595Z,102299.28
2018-02-16T05:53:07.903Z,102299.06
2018-02-16T05:55:36.234Z,102311.53
2018-02-16T05:58:06.137Z,102316.05
2018-02-16T06:00:34.425Z,102313.59
2018-02-16T06:03:03.525Z,102313.30
2018-02-16T06:05:32.619Z,102324.03
2018-02-16T06:08:01.693Z,102326.00
2018-02-16T06:10:29.990Z,102325.58
2018-02-16T06:12:58.297Z,102329.61
2018-02-16T06:15:27.401Z,102332.81
2018-02-16T06:17:55.728Z,102333.65
2018-02-16T06:20:24.045Z,102334.97
2018-02-16T06:22:52.343Z,102340.81
2018-02-16T06:25:21.415Z,102345.69
2018-02-16T06:27:50.491Z,102340.23
2018-02-16T06:30:18.797Z,102341.14
2018-02-16T06:32:47.913Z,102344.56
2018-02-16T06:35:16.979Z,102349.60
2018-02-16T06:37:46.725Z,102352.61
2018-02-16T06:40:15.863Z,102354.00
2018-02-16T06:42:44.157Z,102360.55
2018-02-16T06:45:12.476Z,102362.91
2018-02-16T06:47:41.587Z,102365.27
2018-02-16T06:50:10.657Z,102363.58
2018-02-16T06:52:38.963Z,102367.30
2018-02-16T06:55:08.055Z,102372.18
2018-02-16T06:57:36.511Z,102384.52
2018-02-16T07:00:04.827Z,102378.80
2018-02-16T07:02:33.891Z,102388.00
2018-02-16T07:05:02.203Z,102392.46
2018-02-16T07:07:31.321Z,102396.44
2018-02-16T07:09:59.581Z,102395.53
2018-02-16T07:12:28.668Z,102402.38
2018-02-16T07:14:57.871Z,102406.84
2018-02-16T07:17:26.191Z,102407.57
2018-02-16T07:19:54.501Z,102408.95
2018-02-16T07:22:22.823Z,102417.20
2018-02-16T07:24:51.883Z,102415.33
2018-02-16T07:27:20.203Z,102417.79
2018-02-16T07:29:48.624Z,102423.64
2018-02-16T07:32:16.933Z,102430.08
2018-02-16T07:34:45.253Z,102425.37
2018-02-16T07:37:14.315Z,102425.25
2018-02-16T07:39:42.615Z,102429.03
2018-02-16T07:42:10.915Z,102437.27
2018-02-16T07:44:39.216Z,102436.54
2018-02-16T07:47:07.547Z,102442.00
2018-02-16T07:49:35.835Z,102439.17
2018-02-16T07:52:04.162Z,102444.09
2018-02-16T07:54:33.857Z,102442.22
2018-02-16T07:57:02.946Z,102445.12
2018-02-16T07:59:32.757Z,102452.21
2018-02-16T08:02:01.059Z,102458.09
2018-02-16T08:04:30.171Z,102461.11
2018-02-16T08:06:59.255Z,102465.92
2018-02-16T08:09:28.321Z,102464.22
2018-02-16T08:11:56.656Z,102473.23
2018-02-16T08:14:25.749Z,102470.87
2018-02-16T08:16:54.856Z,102475.63
2018-02-16T08:19:23.185Z,102478.19
2018-02-16T08:21:51.532Z,102484.34
2018-02-16T08:24:19.866Z,102488.34
2018-02-16T08:26:48.178Z,102487.37
2018-02-16T08:29:17.473Z,102498.02
2018-02-16T08:31:46.551Z,102502.22
2018-02-16T08:34:14.902Z,102505.03
2018-02-16T08:36:43.236Z,102513.53
2018-02-16T08:39:12.303Z,102512.23
2018-02-16T08:41:40.641Z,102514.63
2018-02-16T08:44:08.950Z,102519.94
2018-02-16T08:46:37.255Z,102525.75
2018-02-16T08:49:05.555Z,102525.49
2018-02-16T08:51:34.653Z,102524.58
2018-02-16T08:54:02.963Z,102525.93
2018-02-16T08:56:31.259Z,102537.74
2018-02-16T08:58:59.559Z,102543.05
2018-02-16T09:01:27.853Z,102550.55
2018-02-16T09:03:56.169Z,102556.91
2018-02-16T09:06:25.330Z,102556.95
2018-02-16T09:08:53.641Z,102561.70
2018-02-16T09:11:21.955Z,102567.19
2018-02-16T09:13:50.246Z,102562.91
2018-02-16T09:16:19.407Z,102570.34
2018-02-16T09:18:47.833Z,102566.02
2018-02-16T09:21:16.133Z,102571.17
2018-02-16T09:23:44.436Z,102577.41
2018-02-16T09:26:14.261Z,102586.45
2018-02-16T09:28:42.688Z,102590.43
2018-02-16T09:31:11.028Z,102586.50
2018-02-16T09:33:40.299Z,102588.81
2018-02-16T09:36:09.167Z,102592.05
2018-02-16T09:38:38.402Z,102592.13
2018-02-16T09:41:06.811Z,102595.98
2018-02-16T09:43:35.905Z,102592.68
2018-02-16T09:46:05.009Z,102600.81
2018-02-16T09:48:34.092Z,102602.90
2018-02-16T09:51:02.404Z,102609.81
2018-02-16T09:53:31.489Z,102604.84
2018-02-16T09:56:00.545Z,102615.06
2018-02-16T09:58:28.859Z,102627.64
2018-02-16T10:00:57.145Z,102620.50
2018-02-16T10:03:25.463Z,102621.83
2018-02-16T10:05:53.759Z,102625.16
2018-02-16T10:08:22.072Z,102627.69
2018-02-16T10:10:50.407Z,102627.41
2018-02-16T10:13:19.485Z,102625.02
2018-02-16T10:15:47.832Z,102634.77
2018-02-16T10:18:16.117Z,102633.33
2018-02-16T10:20:44.403Z,102631.37
2018-02-16T10:23:12.701Z,102636.97
2018-02-16T10:25:41.010Z,102638.77
2018-02-16T10:28:10.105Z,102650.73
2018-02-16T10:30:39.190Z,102649.65
2018-02-16T10:33:07.491Z,102647.97
2018-02-16T10:35:36.567Z,102651.82
2018-02-16T10:38:04.881Z,102659.22
2018-02-16T10:40:33.180Z,102659.00
2018-02-16T10:43:01.525Z,102660.75
2018-02-16T10:45:30.665Z,102656.63
2018-02-16T10:47:58.991Z,102664.47
2018-02-16T10:50:28.808Z,102657.18
2018-02-16T10:52:58.620Z,102660.16
2018-02-16T10:55:28.442Z,102664.00
2018-02-16T10:57:56.763Z,102665.38
2018-02-16T11:00:30.598Z,102661.09
2018-02-16T11:03:04.386Z,102671.25
2018-02-16T11:05:45.150Z,102676.44
2018-02-16T11:08:18.963Z,102676.66
2018-02-16T11:10:47.317Z,102674.59
2018-02-16T11:13:16.406Z,102671.53
2018-02-16T11:15:45.478Z,102682.62
2018-02-16T11:18:13.795Z,102680.12
2018-02-16T11:20:42.856Z,102679.34
2018-02-16T11:23:11.168Z,102680.77
2018-02-16T11:25:40.253Z,102689.47
2018-02-16T11:28:08.546Z,102691.14
2018-02-16T11:30:37.616Z,102687.23
2018-02-16T11:33:05.909Z,102685.32
2018-02-16T11:35:34.225Z,102697.75
2018-02-16T11:38:02.518Z,102700.69
2018-02-16T11:40:30.816Z,102698.73
2018-02-16T11:42:59.124Z,102712.91
2018-02-16T11:45:27.467Z,102702.80
2018-02-16T11:47:55.760Z,102708.73
2018-02-16T11:50:24.056Z,102707.86
2018-02-16T11:52:52.360Z,102709.55
2018-02-16T11:55:20.673Z,102715.44
2018-02-16T11:57:48.977Z,102712.50
2018-02-16T12:00:17.295Z,102726.96
2018-02-16T12:02:45.837Z,102732.41
2018-02-16T12:05:14.134Z,102735.89
2018-02-16T12:07:42.468Z,102733.64
2018-02-16T12:10:11.536Z,102731.95
2018-02-16T12:12:39.854Z,102725.23
2018-02-16T12:15:08.934Z,102723.68
2018-02-16T12:17:37.292Z,102731.33
2018-02-16T12:20:05.591Z,102731.72
2018-02-16T12:22:33.918Z,102734.63
2018-02-16T12:25:02.212Z,102739.50
2018-02-16T12:27:30.526Z,102743.67
2018-02-16T12:29:58.832Z,102734.41
2018-02-16T12:32:27.959Z,102736.03
2018-02-16T12:34:56.262Z,102739.03
2018-02-16T12:37:24.680Z,102735.44
2018-02-16T12:39:52.975Z,102734.87
2018-02-16T12:42:21.357Z,102739.73
2018-02-16T12:44:49.655Z,102735.39
2018-02-16T12:47:18.724Z,102741.13
2018-02-16T12:49:47.852Z,102732.67
2018-02-16T12:52:16.955Z,102733.37
2018-02-16T12:54:46.026Z,102735.59
2018-02-16T12:57:15.108Z,102735.51
2018-02-16T12:59:43.432Z,102737.39
2018-02-16T13:02:11.760Z,102728.41
2018-02-16T13:04:40.052Z,102740.73
2018-02-16T13:07:08.348Z,102739.13
2018-02-16T13:09:36.644Z,102737.15
2018-02-16T13:12:05.702Z,102737.98
2018-02-16T13:14:34.048Z,102740.91
2018-02-16T13:17:02.449Z,102741.59
2018-02-16T13:19:30.779Z,102739.92
2018-02-16T13:21:59.052Z,102737.27
2018-02-16T13:24:27.368Z,102738.39
2018-02-16T13:26:56.463Z,102732.93
2018-02-16T13:29:25.556Z,102736.16
2018-02-16T13:31:53.878Z,102739.91
2018-02-16T13:34:22.196Z,102735.78
2018-02-16T13:36:50.509Z,102743.07
2018-02-16T13:39:19.583Z,102735.83
2018-02-16T13:41:47.925Z,102737.12
2018-02-16T13:44:16.211Z,102738.41
2018-02-16T13:46:44.535Z,102737.47
2018-02-16T13:49:12.858Z,102736.20
2018-02-16T13:51:41.169Z,102739.61
2018-02-16T13:54:09.494Z,102738.45
2018-02-16T13:56:38.571Z,102742.17
2018-02-16T13:59:06.905Z,102738.24
2018-02-16T14:01:35.212Z,102734.64
2018-02-16T14:04:03.504Z,102739.70
2018-02-16T14:06:31.808Z,102743.96
2018-02-16T14:09:00.125Z,102741.13
2018-02-16T14:11:28.420Z,102740.70
2018-02-16T14:13:56.730Z,102740.29
2018-02-16T14:16:25.081Z,102736.66
2018-02-16T14:18:54.058Z,102735.13
2018-02-16T14:21:22.358Z,102732.41
2018-02-16T14:23:50.688Z,102736.59
2018-02-16T14:26:19.024Z,102734.70
2018-02-16T14:28:47.385Z,102737.03
2018-02-16T14:31:17.152Z,102738.73
2018-02-16T14:33:46.250Z,102731.42
2018-02-16T14:36:14.544Z,102725.52
2018-02-16T14:38:44.350Z,102729.54
2018-02-16T14:41:12.646Z,102725.17
2018-02-16T14:43:41.714Z,102725.30
2018-02-16T14:46:10.074Z,102737.50
2018-02-16T14:48:38.381Z,102746.49
2018-02-16T14:51:06.715Z,102743.70
2018-02-16T14:53:36.638Z,102736.36
2018-02-16T14:56:05.749Z,102747.84
2018-02-16T14:58:34.788Z,102745.77
2018-02-16T15:01:03.128Z,102745.69
2018-02-16T15:03:31.448Z,102744.73
2018-02-16T15:05:59.739Z,102748.20
2018-02-16T15:08:29.604Z,102747.09
2018-02-16T15:10:57.905Z,102741.52
2018-02-16T15:13:26.294Z,102733.03
2018-02-16T15:15:55.323Z,102732.99
2018-02-16T15:18:23.654Z,102735.35
2018-02-16T15:20:51.954Z,102729.74
2018-02-16T15:23:20.265Z,102731.79
2018-02-16T15:25:48.594Z,102727.37
2018-02-16T15:28:16.910Z,102737.76
2018-02-16T15:30:45.264Z,102736.41
2018-02-16T15:33:13.583Z,102740.20
2018-02-16T15:35:41.899Z,102747.22
2018-02-16T15:38:10.213Z,102750.97
2018-02-16T15:40:38.564Z,102754.38
2018-02-16T15:43:07.680Z,102757.43
2018-02-16T15:45:36.124Z,102759.11
2018-02-16T15:48:04.468Z,102763.46
2018-02-16T15:50:32.775Z,102773.72
2018-02-16T15:53:01.070Z,102768.32
2018-02-16T15:55:29.354Z,102774.63
2018-02-16T15:57:57.673Z,102772.22
2018-02-16T16:00:25.976Z,102774.03
2018-02-16T16:02:54.322Z,102764.88
2018-02-16T16:05:22.630Z,102777.72
2018-02-16T16:07:51.556Z,102774.46
2018-02-16T16:10:19.886Z,102780.50
2018-02-16T16:12:48.227Z,102768.50
2018-02-16T16:15:16.546Z,102775.20
2018-02-16T16:17:45.712Z,102773.59
2018-02-16T16:20:14.026Z,102767.60
2018-02-16T16:22:43.100Z,102777.98
2018-02-16T16:25:11.589Z,102778.84
2018-02-16T16:27:40.660Z,102773.52
2018-02-16T16:30:08.952Z,102764.23
2018-02-16T16:32:37.264Z,102765.84
2018-02-16T16:35:05.577Z,102769.48
2018-02-16T16:37:33.882Z,102779.66
2018-02-16T16:40:02.289Z,102776.17
2018-02-16T16:42:30.636Z,102775.73
2018-02-16T16:44:58.999Z,102772.02
2018-02-16T16:47:27.296Z,102777.72
2018-02-16T16:49:55.614Z,102782.67
2018-02-16T16:52:23.912Z,102777.13
2018-02-16T16:54:52.244Z,102776.50
2018-02-16T16:57:20.541Z,102780.92
2018-02-16T16:59:48.853Z,102780.98
2018-02-16T17:02:17.163Z,102785.73
2018-02-16T17:04:46.219Z,102786.50
2018-02-16T17:07:14.548Z,102779.69
2018-02-16T17:09:43.623Z,102777.95
2018-02-16T17:12:11.950Z,102776.69
2018-02-16T17:14:40.283Z,102775.84
2018-02-16T17:17:08.691Z,102772.97
2018-02-16T17:19:37.773Z,102780.45
2018-02-16T17:22:06.099Z,102774.50
2018-02-16T17:24:34.437Z,102778.55
2018-02-16T17:27:03.515Z,102778.36
2018-02-16T17:29:31.825Z,102783.12
2018-02-16T17:32:00.899Z,102780.88
2018-02-16T17:34:29.211Z,102777.73
2018-02-16T17:36:58.293Z,102775.98
2018-02-16T17:39:26.619Z,102783.88
2018-02-16T17:41:54.921Z,102784.10
2018-02-16T17:44:23.221Z,102783.30
2018-02-16T17:46:51.514Z,102782.11
2018-02-16T17:49:19.817Z,102780.56
2018-02-16T17:51:48.947Z,102782.42
2018-02-16T17:54:17.259Z,102785.60
2018-02-16T17:56:45.594Z,102786.48
2018-02-16T17:59:13.903Z,102785.34
2018-02-16T18:01:42.225Z,102783.73
2018-02-16T18:04:10.544Z,102799.45
2018-02-16T18:06:38.913Z,102800.45
2018-02-16T18:09:08.133Z,102797.63
2018-02-16T18:11:36.464Z,102803.86
2018-02-16T18:14:06.280Z,102806.32
2018-02-16T18:16:36.076Z,102808.88
2018-02-16T18:19:04.392Z,102810.53
2018-02-16T18:21:32.717Z,102809.49
2018-02-16T18:24:01.037Z,102810.89
2018-02-16T18:26:29.351Z,102798.51
2018-02-16T18:28:58.458Z,102797.18
2018-02-16T18:31:28.257Z,102798.44
2018-02-16T18:33:57.347Z,102799.13
2018-02-16T18:36:25.797Z,102797.02
2018-02-16T18:38:54.124Z,102800.58
2018-02-16T18:41:22.473Z,102800.09
2018-02-16T18:43:50.805Z,102799.13
2018-02-16T18:46:19.117Z,102796.72
2018-02-16T18:48:47.441Z,102795.10
2018-02-16T18:51:15.744Z,102797.76
2018-02-16T18:53:44.836Z,102799.09
2018-02-16T18:56:13.912Z,102797.02
2018-02-16T18:58:42.265Z,102794.62
2018-02-16T19:01:10.561Z,102789.66
2018-02-16T19:03:38.903Z,102787.48
2018-02-16T19:06:07.216Z,102792.77
2018-02-16T19:08:35.535Z,102786.55
2018-02-16T19:11:04.655Z,102795.91
2018-02-16T19:13:33.740Z,102795.67
2018-02-16T19:16:02.815Z,102798.94
2018-02-16T19:18:31.137Z,102805.59
2018-02-16T19:21:00.256Z,102802.09
2018-02-16T19:23:28.576Z,102805.35
2018-02-16T19:25:56.894Z,102813.39
2018-02-16T19:28:26.012Z,102810.47
2018-02-16T19:30:54.322Z,102804.02
2018-02-16T19:33:22.643Z,102806.06
2018-02-16T19:35:51.232Z,102807.81
2018-02-16T19:38:19.590Z,102800.09
2018-02-16T19:40:48.241Z,102795.40
2018-02-16T19:43:16.607Z,102790.58
2018-02-16T19:45:45.313Z,102780.56
2018-02-16T19:48:13.679Z,102780.20
2018-02-16T19:50:43.857Z,102780.62
2018-02-16T19:53:12.194Z,102786.13
2018-02-16T19:55:40.512Z,102784.86
2018-02-16T19:58:08.828Z,102789.13
2018-02-16T20:00:38.392Z,102781.12
2018-02-16T20:03:07.546Z,102777.88
2018-02-16T20:05:36.645Z,102773.76
2018-02-16T20:08:05.713Z,102765.14
2018-02-16T20:10:34.369Z,102753.38
2018-02-16T20:13:03.100Z,102748.27
2018-02-16T20:15:31.591Z,102751.66
2018-02-16T20:18:01.663Z,102745.49
2018-02-16T20:20:30.350Z,102731.40
2018-02-16T20:22:59.017Z,102731.87
2018-02-16T20:25:28.112Z,102736.90
2018-02-16T20:27:58.324Z,102737.85
2018-02-16T20:30:26.958Z,102734.73
2018-02-16T20:32:55.743Z,102735.10
2018-02-16T20:35:24.100Z,102738.39
2018-02-16T20:37:53.197Z,102743.10
2018-02-16T20:40:22.561Z,102734.13
2018-02-16T20:42:52.042Z,102740.73
2018-02-16T20:45:20.450Z,102743.40
2018-02-16T20:47:49.114Z,102740.63
2018-02-16T20:50:17.553Z,102733.20
2018-02-16T20:52:46.679Z,102737.72
2018-02-16T20:55:15.017Z,102736.21
2018-02-16T20:57:43.325Z,102741.06
2018-02-16T21:00:11.627Z,102739.38
2018-02-16T21:02:40.702Z,102740.92
2018-02-16T21:05:09.787Z,102739.47
2018-02-16T21:07:38.128Z,102739.47
2018-02-16T21:10:06.451Z,102740.92
2018-02-16T21:12:34.803Z,102748.12
2018-02-16T21:15:03.121Z,102743.66
2018-02-16T21:17:31.429Z,102758.92
2018-02-16T21:20:00.543Z,102761.36
2018-02-16T21:22:28.872Z,102767.14
2018-02-16T21:24:57.173Z,102773.83
2018-02-16T21:27:25.493Z,102775.69
2018-02-16T21:29:53.815Z,102774.48
2018-02-16T21:32:22.121Z,102775.29
2018-02-16T21:34:50.419Z,102774.26
2018-02-16T21:37:19.567Z,102777.08
2018-02-16T21:39:47.863Z,102767.62
2018-02-16T21:42:16.162Z,102766.84
2018-02-16T21:44:44.493Z,102764.92
2018-02-16T21:47:12.809Z,102761.36
2018-02-16T21:49:41.113Z,102752.36
2018-02-16T21:52:10.212Z,102751.81
2018-02-16T21:54:39.297Z,102740.91
2018-02-16T21:57:07.607Z,102739.41
2018-02-16T21:59:36.690Z,102747.36
2018-02-16T22:02:05.751Z,102744.83
2018-02-16T22:04:34.052Z,102741.20
2018-02-16T22:07:02.366Z,102741.11
2018-02-16T22:09:31.477Z,102746.45
2018-02-16T22:12:00.022Z,102753.63
2018-02-16T22:14:28.355Z,102756.81
2018-02-16T22:16:56.744Z,102759.58
2018-02-16T22:19:25.113Z,102759.84
2018-02-16T22:21:53.411Z,102759.54
2018-02-16T22:24:21.734Z,102758.39
2018-02-16T22:26:50.061Z,102756.45
2018-02-16T22:29:18.476Z,102752.12
2018-02-16T22:31:46.968Z,102751.70
2018-02-16T22:34:15.267Z,102752.66
2018-02-16T22:36:43.736Z,102754.12
2018-02-16T22:39:12.065Z,102756.52
2018-02-16T22:41:41.156Z,102752.89
2018-02-16T22:44:10.247Z,102754.64
2018-02-16T22:46:39.318Z,102756.27
2018-02-16T22:49:07.628Z,102753.51
2018-02-16T22:51:36.706Z,102750.86
2018-02-16T22:54:05.021Z,102739.85
2018-02-16T22:56:34.113Z,102745.03
2018-02-16T22:59:02.499Z,102744.92
2018-02-16T23:01:30.777Z,102747.20
2018-02-16T23:03:59.842Z,102746.53
2018-02-16T23:06:28.177Z,102746.70
2018-02-16T23:08:56.551Z,102750.19
2018-02-16T23:11:25.616Z,102741.46
2018-02-16T23:13:53.931Z,102740.92
2018-02-16T23:16:23.008Z,102743.94
2018-02-16T23:18:51.388Z,102742.73
2018-02-16T23:21:19.712Z,102748.87
2018-02-16T23:23:48.019Z,102745.91
2018-02-16T23:26:16.317Z,102737.61
2018-02-16T23:28:44.623Z,102739.23
2018-02-16T23:31:12.926Z,102738.64
2018-02-16T23:33:42.011Z,102737.32
2018-02-16T23:36:10.326Z,102729.50
2018-02-16T23:38:38.628Z,102736.70
2018-02-16T23:41:06.919Z,102741.58
2018-02-16T23:43:35.181Z,102734.96
2018-02-16T23:46:04.277Z,102733.22
2018-02-16T23:48:33.350Z,102730.45
2018-02-16T23:51:01.674Z,102731.80
2018-02-16T23:53:30.799Z,102733.28
2018-02-16T23:55:59.140Z,102723.11
2018-02-16T23:58:27.478Z,102721.73
